createdAt,value
2022-11-11T00:02:01.785Z,21.10
2022-11-11T00:04:29.846Z,21.10
2022-11-11T00:06:57.853Z,21.20
2022-11-11T00:09:27.242Z,21.20
2022-11-11T00:11:55.172Z,21.40
2022-11-11T00:14:23.334Z,21.40
2022-11-11T00:17:08.546Z,21.10
2022-11-11T00:19:54.600Z,21.30
2022-11-11T00:22:41.592Z,21.30
2022-11-11T00:25:14.751Z,21.20
2022-11-11T00:27:42.877Z,21.40
2022-11-11T00:30:11.751Z,21.20
2022-11-11T00:32:39.721Z,21.10
2022-11-11T00:35:25.964Z,21.10
2022-11-11T00:37:54.064Z,21.20
2022-11-11T00:40:23.440Z,21.20
2022-11-11T00:42:51.459Z,21.30
2022-11-11T00:45:19.440Z,21.20
2022-11-11T00:48:04.800Z,21.20
2022-11-11T00:50:50.583Z,21.20
2022-11-11T00:53:26.340Z,21.20
2022-11-11T00:55:57.531Z,21.30
2022-11-11T00:58:28.498Z,21.30
2022-11-11T01:00:56.798Z,21.10
2022-11-11T01:03:25.958Z,21.00
2022-11-11T01:05:54.082Z,20.90
2022-11-11T01:08:22.565Z,21.20
2022-11-11T01:10:50.851Z,21.00
2022-11-11T01:13:23.412Z,20.50
2022-11-11T01:15:54.417Z,20.90
2022-11-11T01:18:26.083Z,20.70
2022-11-11T01:21:02.319Z,21.00
2022-11-11T01:23:31.873Z,21.00
2022-11-11T01:26:03.897Z,20.70
2022-11-11T01:28:33.887Z,21.00
2022-11-11T01:31:03.827Z,21.20
2022-11-11T01:33:32.100Z,20.50
2022-11-11T01:36:09.599Z,21.00
2022-11-11T01:38:38.562Z,21.00
2022-11-11T01:41:22.288Z,21.10
2022-11-11T01:43:51.725Z,20.80
2022-11-11T01:46:29.971Z,21.10
2022-11-11T01:49:20.702Z,21.00
2022-11-11T01:52:00.149Z,21.10
2022-11-11T01:54:35.213Z,20.50
2022-11-11T01:57:09.523Z,20.80
2022-11-11T01:59:42.087Z,20.60
2022-11-11T02:02:18.148Z,20.50
2022-11-11T02:05:01.275Z,21.00
2022-11-11T02:07:31.139Z,20.90
2022-11-11T02:09:59.530Z,20.70
2022-11-11T02:12:45.472Z,20.80
2022-11-11T02:15:14.901Z,20.80
2022-11-11T02:17:43.151Z,21.10
2022-11-11T02:20:15.325Z,21.10
2022-11-11T02:22:51.074Z,20.80
2022-11-11T02:25:24.974Z,20.70
2022-11-11T02:27:54.787Z,21.10
2022-11-11T02:30:22.992Z,21.00
2022-11-11T02:32:54.561Z,20.50
2022-11-11T02:35:26.273Z,20.60
2022-11-11T02:37:54.804Z,20.40
2022-11-11T02:40:31.995Z,20.90
2022-11-11T02:42:59.063Z,20.40
2022-11-11T02:45:27.597Z,20.50
2022-11-11T02:47:55.672Z,21.00
2022-11-11T02:50:23.920Z,20.60
2022-11-11T02:52:52.043Z,20.50
2022-11-11T02:55:20.319Z,20.50
2022-11-11T02:57:49.631Z,20.70
2022-11-11T03:00:19.368Z,20.80
2022-11-11T03:02:47.381Z,20.40
2022-11-11T03:05:15.738Z,20.90
2022-11-11T03:07:43.967Z,20.40
2022-11-11T03:10:12.064Z,20.60
2022-11-11T03:12:40.657Z,20.50
2022-11-11T03:15:11.502Z,20.60
2022-11-11T03:17:41.822Z,20.70
2022-11-11T03:20:30.558Z,20.60
2022-11-11T03:23:02.865Z,20.70
2022-11-11T03:25:40.283Z,20.40
2022-11-11T03:28:10.635Z,20.80
2022-11-11T03:30:42.702Z,20.70
2022-11-11T03:33:10.913Z,20.60
2022-11-11T03:35:39.454Z,20.60
2022-11-11T03:38:23.724Z,20.40
2022-11-11T03:40:54.148Z,20.70
2022-11-11T03:43:25.412Z,20.40
2022-11-11T03:45:57.634Z,20.60
2022-11-11T03:48:26.830Z,20.60
2022-11-11T03:50:55.006Z,20.60
2022-11-11T03:53:23.907Z,21.00
2022-11-11T03:55:52.892Z,20.50
2022-11-11T03:58:20.958Z,20.60
2022-11-11T04:00:48.919Z,20.40
2022-11-11T04:03:37.809Z,20.60
2022-11-11T04:06:24.717Z,20.80
2022-11-11T04:09:10.337Z,20.40
2022-11-11T04:11:41.463Z,20.40
2022-11-11T04:14:29.618Z,20.40
2022-11-11T04:16:58.027Z,20.80
2022-11-11T04:19:45.148Z,20.30
2022-11-11T04:22:13.207Z,20.50
2022-11-11T04:24:59.099Z,20.70
2022-11-11T04:27:27.084Z,20.70
2022-11-11T04:29:54.098Z,20.40
2022-11-11T04:32:39.905Z,20.50
2022-11-11T04:35:12.039Z,20.30
2022-11-11T04:37:49.775Z,20.60
2022-11-11T04:40:36.332Z,20.30
2022-11-11T04:43:04.338Z,20.50
2022-11-11T04:45:31.962Z,20.60
2022-11-11T04:48:02.434Z,20.50
2022-11-11T04:50:34.288Z,20.50
2022-11-11T04:53:04.303Z,20.40
2022-11-11T04:55:50.007Z,20.40
2022-11-11T04:58:19.991Z,20.60
2022-11-11T05:00:47.962Z,20.50
2022-11-11T05:03:18.961Z,20.60
2022-11-11T05:06:08.069Z,20.40
2022-11-11T05:08:55.488Z,20.30
2022-11-11T05:11:25.723Z,20.80
2022-11-11T05:14:12.939Z,20.70
2022-11-11T05:17:02.755Z,20.40
2022-11-11T05:19:48.491Z,20.50
2022-11-11T05:22:23.368Z,20.40
2022-11-11T05:25:09.160Z,20.50
2022-11-11T05:27:37.664Z,20.60
2022-11-11T05:30:08.268Z,20.60
2022-11-11T05:32:36.884Z,20.60
2022-11-11T05:35:05.918Z,20.50
2022-11-11T05:37:35.202Z,21.00
2022-11-11T05:40:03.333Z,20.30
2022-11-11T05:42:31.337Z,20.60
2022-11-11T05:44:59.324Z,20.60
2022-11-11T05:47:27.919Z,20.50
2022-11-11T05:49:55.919Z,20.30
2022-11-11T05:52:23.888Z,20.50
2022-11-11T05:54:53.206Z,20.30
2022-11-11T05:57:21.142Z,20.40
2022-11-11T05:59:49.203Z,20.30
2022-11-11T06:02:17.745Z,20.40
2022-11-11T06:04:45.707Z,20.30
2022-11-11T06:07:13.711Z,20.30
2022-11-11T06:09:41.699Z,20.60
2022-11-11T06:12:10.941Z,20.50
2022-11-11T06:14:38.925Z,20.40
2022-11-11T06:17:06.862Z,20.50
2022-11-11T06:19:34.833Z,20.70
2022-11-11T06:22:04.317Z,20.50
2022-11-11T06:24:32.279Z,20.30
2022-11-11T06:26:59.843Z,20.30
2022-11-11T06:29:29.118Z,20.30
2022-11-11T06:31:57.076Z,20.60
2022-11-11T06:34:25.016Z,20.30
2022-11-11T06:36:52.926Z,20.50
2022-11-11T06:39:20.872Z,20.60
2022-11-11T06:41:48.855Z,20.50
2022-11-11T06:44:16.802Z,20.70
2022-11-11T06:46:46.095Z,20.60
2022-11-11T06:49:14.057Z,20.70
2022-11-11T06:51:42.020Z,20.20
2022-11-11T06:54:10.111Z,20.40
2022-11-11T06:56:38.159Z,20.40
2022-11-11T06:59:06.131Z,20.60
2022-11-11T07:01:34.201Z,20.40
2022-11-11T07:04:03.627Z,20.40
2022-11-11T07:06:31.735Z,20.40
2022-11-11T07:09:00.089Z,20.70
2022-11-11T07:11:28.027Z,20.70
2022-11-11T07:13:56.122Z,20.30
2022-11-11T07:16:24.092Z,19.90
2022-11-11T07:18:52.035Z,20.10
2022-11-11T07:21:21.319Z,19.90
2022-11-11T07:23:49.259Z,20.50
2022-11-11T07:26:17.211Z,20.10
2022-11-11T07:28:45.203Z,20.20
2022-11-11T07:31:13.210Z,19.90
2022-11-11T07:33:41.468Z,19.80
2022-11-11T07:36:09.764Z,20.30
2022-11-11T07:38:39.418Z,20.30
2022-11-11T07:41:07.520Z,20.30
2022-11-11T07:43:35.693Z,20.30
2022-11-11T07:46:03.759Z,20.30
2022-11-11T07:48:31.852Z,20.30
2022-11-11T07:51:00.540Z,20.40
2022-11-11T07:53:28.925Z,20.40
2022-11-11T07:55:58.434Z,20.50
2022-11-11T07:58:26.837Z,20.60
2022-11-11T08:00:55.282Z,20.50
2022-11-11T08:03:23.929Z,20.60
2022-11-11T08:05:52.174Z,20.70
2022-11-11T08:08:25.473Z,20.40
2022-11-11T08:10:55.682Z,20.30
2022-11-11T08:13:42.136Z,20.60
2022-11-11T08:16:11.157Z,20.70
2022-11-11T08:18:39.300Z,20.90
2022-11-11T08:21:09.265Z,20.50
2022-11-11T08:24:04.094Z,20.80
2022-11-11T08:26:29.478Z,20.50
2022-11-11T08:28:59.791Z,20.50
2022-11-11T08:31:27.863Z,21.10
2022-11-11T08:33:55.961Z,20.90
2022-11-11T08:36:25.208Z,20.60
2022-11-11T08:38:54.207Z,20.80
2022-11-11T08:41:23.521Z,21.10
2022-11-11T08:43:54.055Z,21.20
2022-11-11T08:46:24.860Z,21.20
2022-11-11T08:48:52.938Z,20.80
2022-11-11T08:51:21.002Z,21.20
2022-11-11T08:53:49.079Z,21.10
2022-11-11T08:56:17.133Z,21.20
2022-11-11T08:58:45.589Z,21.20
2022-11-11T09:01:14.484Z,21.40
2022-11-11T09:03:46.093Z,21.30
2022-11-11T09:06:14.800Z,21.40
2022-11-11T09:08:44.849Z,21.30
2022-11-11T09:11:13.027Z,21.40
2022-11-11T09:13:41.691Z,21.40
2022-11-11T09:16:10.818Z,21.50
2022-11-11T09:18:38.952Z,21.20
2022-11-11T09:21:08.952Z,21.30
2022-11-11T09:23:37.116Z,21.50
2022-11-11T09:26:05.276Z,21.40
2022-11-11T09:28:34.185Z,21.40
2022-11-11T09:33:51.216Z,21.20
2022-11-11T09:36:21.932Z,21.30
2022-11-11T09:38:49.936Z,21.30
2022-11-11T09:41:23.236Z,21.60
2022-11-11T09:43:56.852Z,21.70
2022-11-11T09:46:37.487Z,21.40
2022-11-11T09:49:35.785Z,21.50
2022-11-11T09:52:11.672Z,21.60
2022-11-11T09:54:46.989Z,21.50
2022-11-11T09:57:19.788Z,21.90
2022-11-11T09:59:52.608Z,21.60
2022-11-11T10:02:33.479Z,21.40
2022-11-11T10:05:09.675Z,21.60
2022-11-11T10:07:49.688Z,21.60
2022-11-11T10:10:36.090Z,21.70
2022-11-11T10:13:04.901Z,21.70
2022-11-11T10:15:42.627Z,21.70
2022-11-11T10:18:31.059Z,21.60
2022-11-11T10:20:59.518Z,21.60
2022-11-11T10:23:33.519Z,21.70
2022-11-11T10:26:08.478Z,21.90
2022-11-11T10:28:44.373Z,21.80
2022-11-11T10:31:18.846Z,22.10
2022-11-11T10:33:52.462Z,21.90
2022-11-11T10:36:24.740Z,22.20
2022-11-11T10:38:59.770Z,22.20
2022-11-11T10:41:34.173Z,22.40
2022-11-11T10:44:02.252Z,22.50
2022-11-11T10:46:40.866Z,22.10
2022-11-11T10:49:15.651Z,22.50
2022-11-11T10:51:48.160Z,22.60
2022-11-11T10:54:21.034Z,22.70
2022-11-11T10:56:56.364Z,22.70
2022-11-11T10:59:27.727Z,22.70
2022-11-11T11:02:00.311Z,22.70
2022-11-11T11:04:36.649Z,22.30
2022-11-11T11:07:07.522Z,22.80
2022-11-11T11:09:42.367Z,22.50
2022-11-11T11:12:17.097Z,22.90
2022-11-11T11:14:49.509Z,22.80
2022-11-11T11:17:23.910Z,23.10
2022-11-11T11:20:11.944Z,22.90
2022-11-11T11:22:49.034Z,23.10
2022-11-11T11:25:19.997Z,22.70
2022-11-11T11:27:50.845Z,22.80
2022-11-11T11:30:23.332Z,23.20
2022-11-11T11:32:59.639Z,23.20
2022-11-11T11:35:36.779Z,23.00
2022-11-11T11:38:06.778Z,22.70
2022-11-11T11:40:49.828Z,23.00
2022-11-11T11:43:34.079Z,22.90
2022-11-11T11:46:08.527Z,23.20
2022-11-11T11:49:01.171Z,23.10
2022-11-11T11:51:36.922Z,23.00
2022-11-11T11:54:25.351Z,23.00
2022-11-11T11:56:59.760Z,22.80
2022-11-11T11:59:34.857Z,23.10
2022-11-11T12:02:22.957Z,22.80
2022-11-11T12:05:10.194Z,23.10
2022-11-11T12:08:06.800Z,23.00
2022-11-11T12:10:47.725Z,22.90
2022-11-11T12:13:35.122Z,23.00
2022-11-11T12:16:18.165Z,23.00
2022-11-11T12:19:06.108Z,22.90
2022-11-11T12:21:41.928Z,23.20
2022-11-11T12:24:24.402Z,23.00
2022-11-11T12:27:04.201Z,22.80
2022-11-11T12:29:50.044Z,22.70
2022-11-11T12:32:47.541Z,23.00
2022-11-11T12:35:34.963Z,22.90
2022-11-11T12:38:26.651Z,22.90
2022-11-11T12:41:06.729Z,23.30
2022-11-11T12:43:42.995Z,23.00
2022-11-11T12:46:23.868Z,23.10
2022-11-11T12:49:04.191Z,23.30
2022-11-11T12:51:46.992Z,23.20
2022-11-11T12:54:28.657Z,23.10
2022-11-11T12:57:05.888Z,23.10
2022-11-11T12:59:59.958Z,23.40
2022-11-11T13:03:02.421Z,23.20
2022-11-11T13:05:35.467Z,23.10
2022-11-11T13:08:38.977Z,23.00
2022-11-11T13:11:14.871Z,23.50
2022-11-11T13:14:01.624Z,23.30
2022-11-11T13:16:29.921Z,23.20
2022-11-11T13:19:09.816Z,23.30
2022-11-11T13:21:51.812Z,23.40
2022-11-11T13:24:24.178Z,23.70
2022-11-11T13:26:57.940Z,23.80
2022-11-11T13:29:52.844Z,23.70
2022-11-11T13:32:28.663Z,23.80
2022-11-11T13:34:58.632Z,23.90
2022-11-11T13:37:30.116Z,23.60
2022-11-11T13:40:05.423Z,23.70
2022-11-11T13:42:40.767Z,23.60
2022-11-11T13:45:24.486Z,23.50
2022-11-11T13:47:52.496Z,23.60
2022-11-11T13:50:30.380Z,23.50
2022-11-11T13:53:03.165Z,23.70
2022-11-11T13:55:36.816Z,23.60
2022-11-11T13:58:06.420Z,23.70
2022-11-11T14:00:38.252Z,23.70
2022-11-11T14:03:59.576Z,23.90
2022-11-11T14:06:52.299Z,24.10
2022-11-11T14:10:01.204Z,23.90
2022-11-11T14:12:39.286Z,23.90
2022-11-11T14:15:37.260Z,23.90
2022-11-11T14:18:10.025Z,23.80
2022-11-11T14:20:40.578Z,23.90
2022-11-11T14:23:35.410Z,23.90
2022-11-11T14:26:36.621Z,23.80
2022-11-11T14:29:05.419Z,23.40
2022-11-11T14:32:05.920Z,23.60
2022-11-11T14:34:55.864Z,23.70
2022-11-11T14:37:53.156Z,23.60
2022-11-11T14:40:31.012Z,23.40
2022-11-11T14:42:59.787Z,23.80
2022-11-11T14:46:02.865Z,23.80
2022-11-11T14:49:03.871Z,23.70
2022-11-11T14:51:53.800Z,23.50
2022-11-11T14:54:49.660Z,23.60
2022-11-11T14:57:24.214Z,23.60
2022-11-11T14:59:53.959Z,23.20
2022-11-11T15:02:35.277Z,23.20
2022-11-11T15:05:08.699Z,23.60
2022-11-11T15:08:00.904Z,23.60
2022-11-11T15:10:57.259Z,23.30
2022-11-11T15:14:01.048Z,23.10
2022-11-11T15:16:59.720Z,23.40
2022-11-11T15:19:47.574Z,23.00
2022-11-11T15:22:34.768Z,23.40
2022-11-11T15:25:18.884Z,23.00
2022-11-11T15:27:56.026Z,23.00
2022-11-11T15:30:46.756Z,23.00
2022-11-11T15:33:25.391Z,23.10
2022-11-11T15:36:10.508Z,23.30
2022-11-11T15:38:39.866Z,23.30
2022-11-11T15:41:22.460Z,23.10
2022-11-11T15:43:51.619Z,22.80
2022-11-11T15:46:27.069Z,23.30
2022-11-11T15:48:55.211Z,22.90
2022-11-11T15:51:31.939Z,22.70
2022-11-11T15:54:24.132Z,23.10
2022-11-11T15:56:53.374Z,23.20
2022-11-11T15:59:25.335Z,23.10
2022-11-11T16:01:54.887Z,22.90
2022-11-11T16:04:54.563Z,23.10
2022-11-11T16:07:21.386Z,22.70
2022-11-11T16:09:49.467Z,22.50
2022-11-11T16:12:24.312Z,22.90
2022-11-11T16:15:01.114Z,23.10
2022-11-11T16:17:40.538Z,22.70
2022-11-11T16:20:15.884Z,22.60
2022-11-11T16:22:45.927Z,22.70
2022-11-11T16:25:23.149Z,22.50
2022-11-11T16:27:51.941Z,22.90
2022-11-11T16:30:31.172Z,22.70
2022-11-11T16:33:01.104Z,22.60
2022-11-11T16:35:33.704Z,22.60
2022-11-11T16:38:03.907Z,22.80
2022-11-11T16:40:43.646Z,22.10
2022-11-11T16:43:24.477Z,22.40
2022-11-11T16:45:58.558Z,22.30
2022-11-11T16:48:48.474Z,22.20
2022-11-11T16:51:24.012Z,22.20
2022-11-11T16:53:58.212Z,22.50
2022-11-11T16:56:31.930Z,22.20
2022-11-11T16:59:06.099Z,22.50
2022-11-11T17:01:43.837Z,22.20
2022-11-11T17:04:13.845Z,22.10
2022-11-11T17:06:56.265Z,22.30
2022-11-11T17:09:45.878Z,22.30
2022-11-11T17:12:14.199Z,22.00
2022-11-11T17:14:42.148Z,21.80
2022-11-11T17:17:11.742Z,22.10
2022-11-11T17:19:41.184Z,22.20
2022-11-11T17:22:12.958Z,22.10
2022-11-11T17:24:41.060Z,22.20
2022-11-11T17:27:10.206Z,22.30
2022-11-11T17:29:39.110Z,22.10
2022-11-11T17:32:07.579Z,22.20
2022-11-11T17:34:35.726Z,22.20
2022-11-11T17:37:05.108Z,22.10
2022-11-11T17:39:33.096Z,22.00
2022-11-11T17:42:01.170Z,22.10
2022-11-11T17:44:29.187Z,22.10
2022-11-11T17:46:57.140Z,22.00
2022-11-11T17:49:50.288Z,21.90
2022-11-11T17:52:14.713Z,22.00
2022-11-11T17:54:42.820Z,22.20
2022-11-11T17:57:11.095Z,21.70
2022-11-11T17:59:39.456Z,22.20
2022-11-11T18:02:07.677Z,22.00
2022-11-11T18:04:35.647Z,22.00
2022-11-11T18:07:03.769Z,21.70
2022-11-11T18:09:33.116Z,22.00
2022-11-11T18:12:01.078Z,22.00
2022-11-11T18:14:29.098Z,22.00
2022-11-11T18:16:57.084Z,22.10
2022-11-11T18:19:25.507Z,21.90
2022-11-11T18:21:53.501Z,21.70
2022-11-11T18:24:21.460Z,22.00
2022-11-11T18:26:50.760Z,21.80
2022-11-11T18:29:18.743Z,21.90
2022-11-11T18:31:46.725Z,21.90
2022-11-11T18:34:14.896Z,22.00
2022-11-11T18:36:42.870Z,22.10
2022-11-11T18:39:10.907Z,22.10
2022-11-11T18:41:38.837Z,21.60
2022-11-11T18:44:08.229Z,21.80
2022-11-11T18:46:36.447Z,22.00
2022-11-11T18:49:06.884Z,21.90
2022-11-11T18:51:35.745Z,21.70
2022-11-11T18:54:04.350Z,21.80
2022-11-11T18:56:32.698Z,21.50
2022-11-11T18:59:01.963Z,21.90
2022-11-11T19:01:33.941Z,21.80
2022-11-11T19:04:05.883Z,22.10
2022-11-11T19:06:37.764Z,22.00
2022-11-11T19:09:08.224Z,22.10
2022-11-11T19:11:39.199Z,22.10
2022-11-11T19:14:08.303Z,21.90
2022-11-11T19:16:38.151Z,21.60
2022-11-11T19:19:06.957Z,22.00
2022-11-11T19:21:37.241Z,21.60
2022-11-11T19:24:08.003Z,21.50
2022-11-11T19:26:36.553Z,21.50
2022-11-11T19:29:06.105Z,21.70
2022-11-11T19:31:34.395Z,21.60
2022-11-11T19:34:03.919Z,21.40
2022-11-11T19:36:32.169Z,21.50
2022-11-11T19:39:02.188Z,21.60
2022-11-11T19:41:32.223Z,21.40
2022-11-11T19:44:00.671Z,21.60
2022-11-11T19:46:30.207Z,21.50
2022-11-11T19:48:59.663Z,21.70
2022-11-11T19:51:30.445Z,21.60
2022-11-11T19:53:58.487Z,21.90
2022-11-11T19:56:31.852Z,21.60
2022-11-11T19:59:03.095Z,22.00
2022-11-11T20:01:31.303Z,21.50
2022-11-11T20:03:59.599Z,21.60
2022-11-11T20:06:31.958Z,21.80
2022-11-11T20:09:03.357Z,21.50
2022-11-11T20:11:31.706Z,21.70
2022-11-11T20:14:00.197Z,21.80
2022-11-11T20:16:28.220Z,22.00
2022-11-11T20:18:56.775Z,21.80
2022-11-11T20:21:25.118Z,21.80
2022-11-11T20:23:55.231Z,21.50
2022-11-11T20:26:23.972Z,21.70
2022-11-11T20:28:57.170Z,21.60
2022-11-11T20:31:27.131Z,21.50
2022-11-11T20:33:55.943Z,21.50
2022-11-11T20:36:25.007Z,21.60
2022-11-11T20:38:54.743Z,21.60
2022-11-11T20:41:22.779Z,21.80
2022-11-11T20:43:50.795Z,21.90
2022-11-11T20:46:20.833Z,21.70
2022-11-11T20:48:50.590Z,21.50
2022-11-11T20:51:20.931Z,21.60
2022-11-11T20:53:48.932Z,22.00
2022-11-11T20:56:23.828Z,21.50
2022-11-11T20:58:52.753Z,21.90
2022-11-11T21:01:25.056Z,21.60
2022-11-11T21:03:55.835Z,21.50
2022-11-11T21:06:25.146Z,21.40
2022-11-11T21:08:53.687Z,21.60
2022-11-11T21:11:24.970Z,21.60
2022-11-11T21:13:55.344Z,21.60
2022-11-11T21:16:26.468Z,21.80
2022-11-11T21:18:55.838Z,21.50
2022-11-11T21:21:26.299Z,21.70
2022-11-11T21:23:59.011Z,22.00
2022-11-11T21:26:29.451Z,21.60
2022-11-11T21:28:58.525Z,21.80
2022-11-11T21:31:29.229Z,21.60
2022-11-11T21:33:59.468Z,22.00
2022-11-11T21:36:30.030Z,21.80
2022-11-11T21:39:01.799Z,21.70
2022-11-11T21:41:32.840Z,21.60
2022-11-11T21:44:00.902Z,21.70
2022-11-11T21:46:29.149Z,22.00
2022-11-11T21:48:57.233Z,21.80
2022-11-11T21:51:28.302Z,22.20
2022-11-11T21:54:02.550Z,21.80
2022-11-11T21:56:34.735Z,21.70
2022-11-11T21:59:05.727Z,22.00
2022-11-11T22:01:36.681Z,21.90
2022-11-11T22:04:07.375Z,21.80
2022-11-11T22:06:35.778Z,21.80
2022-11-11T22:09:06.203Z,21.90
2022-11-11T22:11:37.309Z,21.90
2022-11-11T22:14:06.714Z,22.00
2022-11-11T22:16:37.463Z,22.00
2022-11-11T22:19:07.632Z,22.00
2022-11-11T22:21:37.110Z,21.80
2022-11-11T22:24:07.656Z,21.40
2022-11-11T22:26:40.441Z,21.30
2022-11-11T22:29:11.313Z,21.40
2022-11-11T22:31:41.880Z,21.20
2022-11-11T22:34:12.384Z,21.50
2022-11-11T22:36:40.923Z,21.20
2022-11-11T22:39:10.021Z,21.40
2022-11-11T22:41:41.075Z,21.30
2022-11-11T22:44:09.274Z,21.40
2022-11-11T22:46:37.958Z,21.10
2022-11-11T22:49:10.902Z,21.30
2022-11-11T22:51:43.817Z,21.30
2022-11-11T22:54:20.321Z,21.40
2022-11-11T22:56:50.274Z,21.20
2022-11-11T22:59:18.274Z,21.30
2022-11-11T23:01:46.309Z,21.20
2022-11-11T23:04:14.326Z,21.30
2022-11-11T23:06:42.463Z,21.10
2022-11-11T23:09:11.935Z,21.40
2022-11-11T23:11:41.092Z,21.10
2022-11-11T23:14:19.096Z,21.10
2022-11-11T23:16:49.981Z,21.40
2022-11-11T23:19:17.895Z,21.20
2022-11-11T23:21:45.871Z,21.20
2022-11-11T23:24:13.900Z,21.20
2022-11-11T23:26:43.452Z,21.30
2022-11-11T23:29:12.922Z,21.20
2022-11-11T23:31:40.928Z,21.30
2022-11-11T23:34:09.030Z,21.10
2022-11-11T23:36:37.104Z,21.30
2022-11-11T23:39:05.358Z,21.00
2022-11-11T23:41:33.344Z,21.20
2022-11-11T23:44:01.339Z,21.20
2022-11-11T23:46:30.612Z,21.20
2022-11-11T23:48:58.928Z,20.90
2022-11-11T23:51:27.096Z,21.20
2022-11-11T23:53:55.250Z,21.10
2022-11-11T23:56:23.219Z,21.20
2022-11-11T23:58:51.274Z,20.70
